createdAt,value
2018-06-10T00:00:47.561Z,97748.70
2018-06-10T00:03:16.137Z,97751.77
2018-06-10T00:05:44.565Z,97752.03
2018-06-10T00:08:13.019Z,97759.93
2018-06-10T00:10:41.463Z,97756.28
2018-06-10T00:13:09.898Z,97761.27
2018-06-10T00:15:38.377Z,97755.25
2018-06-10T00:18:06.799Z,97755.44
2018-06-10T00:20:35.239Z,97757.46
2018-06-10T00:23:03.829Z,97757.95
2018-06-10T00:25:32.261Z,97758.59
2018-06-10T00:28:00.751Z,97761.95
2018-06-10T00:30:29.181Z,97762.80
2018-06-10T00:32:57.609Z,97760.32
2018-06-10T00:35:26.023Z,97766.65
2018-06-10T00:37:54.457Z,97760.33
2018-06-10T00:40:22.916Z,97765.97
2018-06-10T00:42:51.324Z,97764.17
2018-06-10T00:45:19.715Z,97762.66
2018-06-10T00:47:48.134Z,97762.66
2018-06-10T00:50:16.656Z,97761.86
2018-06-10T00:52:45.329Z,97764.17
2018-06-10T00:55:13.746Z,97771.34
2018-06-10T00:57:42.159Z,97775.22
2018-06-10T01:00:10.617Z,97774.09
2018-06-10T01:02:39.087Z,97776.11
2018-06-10T01:05:07.555Z,97784.75
2018-06-10T01:07:36.003Z,97777.62
2018-06-10T01:10:04.458Z,97781.27
2018-06-10T01:12:32.907Z,97775.58
2018-06-10T01:15:01.337Z,97774.09
2018-06-10T01:17:29.891Z,97775.77
2018-06-10T01:19:58.417Z,97773.46
2018-06-10T01:22:26.870Z,97777.30
2018-06-10T01:24:55.307Z,97773.64
2018-06-10T01:27:23.867Z,97774.14
2018-06-10T01:31:21.797Z,97773.48
2018-06-10T01:33:50.227Z,97770.81
2018-06-10T01:36:18.648Z,97779.30
2018-06-10T01:38:47.079Z,97777.16
2018-06-10T01:41:15.498Z,97779.50
2018-06-10T01:43:43.928Z,97775.16
2018-06-10T01:46:12.380Z,97776.16
2018-06-10T01:48:40.801Z,97780.14
2018-06-10T01:51:09.204Z,97777.48
2018-06-10T01:53:37.763Z,97774.67
2018-06-10T01:56:06.191Z,97770.50
2018-06-10T01:58:34.644Z,97773.66
2018-06-10T02:01:03.098Z,97774.81
2018-06-10T02:03:31.471Z,97771.02
2018-06-10T02:05:59.907Z,97773.50
2018-06-10T02:08:28.324Z,97773.47
2018-06-10T02:10:57.190Z,97775.98
2018-06-10T02:13:25.678Z,97779.79
2018-06-10T02:15:54.107Z,97773.99
2018-06-10T02:18:22.532Z,97766.50
2018-06-10T02:20:50.934Z,97760.50
2018-06-10T02:23:19.407Z,97763.00
2018-06-10T02:25:47.816Z,97758.17
2018-06-10T02:28:16.252Z,97760.85
2018-06-10T02:30:44.708Z,97760.00
2018-06-10T02:33:13.099Z,97772.31
2018-06-10T02:35:41.549Z,97767.16
2018-06-10T02:38:09.995Z,97770.16
2018-06-10T02:40:38.444Z,97781.79
2018-06-10T02:43:07.078Z,97784.14
2018-06-10T02:45:35.519Z,97784.47
2018-06-10T02:48:03.985Z,97777.80
2018-06-10T02:50:32.411Z,97777.96
2018-06-10T02:53:00.889Z,97783.45
2018-06-10T02:55:29.295Z,97788.43
2018-06-10T02:57:57.724Z,97789.42
2018-06-10T03:00:27.106Z,97790.76
2018-06-10T03:02:55.496Z,97787.45
2018-06-10T03:05:23.945Z,97787.78
2018-06-10T03:07:52.342Z,97799.08
2018-06-10T03:14:56.040Z,97807.41
2018-06-10T03:17:24.483Z,97813.39
2018-06-10T03:19:52.891Z,97817.90
2018-06-10T03:22:21.422Z,97817.57
2018-06-10T03:24:49.872Z,97818.72
2018-06-10T03:27:18.387Z,97815.42
2018-06-10T03:29:46.927Z,97822.72
2018-06-10T03:32:15.349Z,97833.36
2018-06-10T03:34:43.869Z,97835.71
2018-06-10T03:37:12.301Z,97842.35
2018-06-10T03:39:40.710Z,97842.04
2018-06-10T03:42:09.167Z,97840.51
2018-06-10T03:44:37.588Z,97840.66
2018-06-10T03:47:06.021Z,97836.37
2018-06-10T03:49:34.622Z,97842.20
2018-06-10T03:52:03.137Z,97846.03
2018-06-10T03:54:31.568Z,97848.34
2018-06-10T03:57:00.030Z,97852.67
2018-06-10T03:59:28.480Z,97857.69
2018-06-10T04:01:56.900Z,97853.69
2018-06-10T04:04:25.326Z,97848.02
2018-06-10T04:06:53.761Z,97850.34
2018-06-10T04:09:22.424Z,97842.52
2018-06-10T04:11:50.900Z,97849.01
2018-06-10T04:14:19.499Z,97847.05
2018-06-10T04:16:47.933Z,97848.72
2018-06-10T04:19:16.421Z,97846.72
2018-06-10T04:21:44.828Z,97851.05
2018-06-10T04:24:13.316Z,97851.03
2018-06-10T04:26:42.649Z,97851.20
2018-06-10T04:29:11.092Z,97856.34
2018-06-10T04:31:39.516Z,97853.05
2018-06-10T04:34:07.932Z,97850.88
2018-06-10T04:36:36.481Z,97853.05
2018-06-10T04:39:07.014Z,97854.55
2018-06-10T04:41:35.468Z,97859.01
2018-06-10T04:44:04.131Z,97864.68
2018-06-10T04:46:32.543Z,97856.02
2018-06-10T04:49:01.028Z,97852.64
2018-06-10T04:51:29.535Z,97856.89
2018-06-10T04:53:57.958Z,97853.80
2018-06-10T04:56:26.391Z,97854.97
2018-06-10T04:58:54.955Z,97853.11
2018-06-10T05:01:23.432Z,97847.23
2018-06-10T05:03:51.904Z,97856.06
2018-06-10T05:06:20.339Z,97855.91
2018-06-10T05:08:48.744Z,97869.58
2018-06-10T05:11:17.171Z,97869.55
2018-06-10T05:13:45.591Z,97863.59
2018-06-10T05:16:14.237Z,97868.20
2018-06-10T05:18:42.738Z,97864.09
2018-06-10T05:21:11.170Z,97867.06
2018-06-10T05:23:39.582Z,97865.72
2018-06-10T05:26:08.061Z,97871.34
2018-06-10T05:28:36.511Z,97879.00
2018-06-10T05:32:34.300Z,97872.20
2018-06-10T05:35:02.781Z,97876.85
2018-06-10T05:37:31.210Z,97866.02
2018-06-10T05:39:59.680Z,97865.22
2018-06-10T05:42:28.116Z,97862.42
2018-06-10T05:44:56.577Z,97860.50
2018-06-10T05:47:25.012Z,97866.92
2018-06-10T05:49:53.406Z,97866.91
2018-06-10T05:52:22.047Z,97871.08
2018-06-10T05:54:50.479Z,97871.08
2018-06-10T05:57:18.920Z,97863.97
2018-06-10T05:59:47.391Z,97871.33
2018-06-10T06:02:15.844Z,97869.03
2018-06-10T06:04:44.272Z,97872.41
2018-06-10T06:07:12.753Z,97870.66
2018-06-10T06:09:41.156Z,97878.09
2018-06-10T06:12:09.564Z,97878.17
2018-06-10T06:14:37.966Z,97884.17
2018-06-10T06:17:06.436Z,97886.04
2018-06-10T06:19:34.834Z,97891.16
2018-06-10T06:22:03.252Z,97891.39
2018-06-10T06:24:31.703Z,97887.98
2018-06-10T06:27:00.272Z,97885.97
2018-06-10T06:29:28.727Z,97887.08
2018-06-10T06:31:57.171Z,97885.91
2018-06-10T06:34:25.658Z,97884.80
2018-06-10T06:36:54.075Z,97889.79
2018-06-10T06:39:22.503Z,97894.55
2018-06-10T06:41:50.967Z,97885.19
2018-06-10T06:44:19.415Z,97892.34
2018-06-10T06:46:47.851Z,97896.50
2018-06-10T06:49:16.276Z,97889.36
2018-06-10T06:51:44.711Z,97886.42
2018-06-10T06:54:13.151Z,97889.23
2018-06-10T06:56:41.539Z,97894.45
2018-06-10T06:59:10.024Z,97898.02
2018-06-10T07:01:38.827Z,97898.27
2018-06-10T07:04:07.335Z,97897.64
2018-06-10T07:06:35.746Z,97896.61
2018-06-10T07:09:06.047Z,97901.19
2018-06-10T07:11:35.047Z,97897.06
2018-06-10T07:14:03.479Z,97905.30
2018-06-10T07:16:32.121Z,97902.78
2018-06-10T07:19:00.547Z,97897.89
2018-06-10T07:21:29.184Z,97899.67
2018-06-10T07:23:57.630Z,97905.23
2018-06-10T07:26:26.283Z,97894.91
2018-06-10T07:28:54.963Z,97897.59
2018-06-10T07:31:23.403Z,97893.96
2018-06-10T07:33:52.036Z,97901.62
2018-06-10T07:36:20.454Z,97899.53
2018-06-10T07:38:48.892Z,97890.95
2018-06-10T07:41:17.494Z,97894.12
2018-06-10T07:43:45.925Z,97894.73
2018-06-10T07:46:14.367Z,97888.23
2018-06-10T07:48:42.810Z,97880.09
2018-06-10T07:51:11.370Z,97879.69
2018-06-10T07:53:39.784Z,97878.98
2018-06-10T07:56:08.200Z,97866.98
2018-06-10T07:58:36.780Z,97874.01
2018-06-10T08:01:05.220Z,97873.60
2018-06-10T08:03:33.715Z,97868.53
2018-06-10T08:06:02.128Z,97875.56
2018-06-10T08:08:30.560Z,97872.31
2018-06-10T08:10:58.966Z,97868.31
2018-06-10T08:13:27.359Z,97872.36
2018-06-10T08:15:55.851Z,97871.94
2018-06-10T08:18:24.339Z,97871.34
2018-06-10T08:20:52.837Z,97866.73
2018-06-10T08:23:21.444Z,97865.84
2018-06-10T08:25:50.018Z,97866.81
2018-06-10T08:28:18.500Z,97864.37
2018-06-10T08:30:46.926Z,97868.12
2018-06-10T08:33:15.381Z,97867.13
2018-06-10T08:35:43.803Z,97865.50
2018-06-10T08:38:12.267Z,97869.02
2018-06-10T08:40:40.722Z,97866.03
2018-06-10T08:43:09.168Z,97869.93
2018-06-10T08:45:37.627Z,97868.19
2018-06-10T08:48:06.111Z,97871.45
2018-06-10T08:50:34.674Z,97872.41
2018-06-10T08:53:03.076Z,97872.97
2018-06-10T08:55:31.549Z,97874.31
2018-06-10T08:57:59.983Z,97876.92
2018-06-10T09:00:28.400Z,97873.40
2018-06-10T09:02:56.950Z,97879.81
2018-06-10T09:05:25.268Z,97879.98
2018-06-10T09:07:53.695Z,97872.33
2018-06-10T09:10:22.207Z,97875.14
2018-06-10T09:12:50.756Z,97877.11
2018-06-10T09:15:19.511Z,97876.47
2018-06-10T09:17:47.897Z,97870.66
2018-06-10T09:20:16.310Z,97868.73
2018-06-10T09:22:44.784Z,97860.14
2018-06-10T09:25:13.476Z,97857.84
2018-06-10T09:27:41.895Z,97857.92
2018-06-10T09:30:10.343Z,97850.61
2018-06-10T09:32:38.756Z,97855.59
2018-06-10T09:35:07.161Z,97862.95
2018-06-10T09:37:35.715Z,97855.50
2018-06-10T09:40:04.425Z,97851.17
2018-06-10T09:42:32.880Z,97844.41
2018-06-10T09:45:01.319Z,97846.58
2018-06-10T09:47:29.852Z,97843.89
2018-06-10T09:49:58.310Z,97844.81
2018-06-10T09:52:27.046Z,97842.84
2018-06-10T09:54:55.501Z,97837.05
2018-06-10T09:57:23.983Z,97833.70
2018-06-10T10:01:21.779Z,97830.64
2018-06-10T10:03:50.188Z,97823.11
2018-06-10T10:06:18.623Z,97823.09
2018-06-10T10:08:47.273Z,97817.40
2018-06-10T10:11:15.913Z,97820.87
2018-06-10T10:13:44.328Z,97820.22
2018-06-10T10:16:12.919Z,97813.34
2018-06-10T10:18:41.333Z,97816.97
2018-06-10T10:21:09.735Z,97815.53
2018-06-10T10:23:38.252Z,97813.42
2018-06-10T10:26:06.694Z,97800.41
2018-06-10T10:28:35.218Z,97800.83
2018-06-10T10:31:03.647Z,97796.23
2018-06-10T10:33:32.215Z,97791.88
2018-06-10T10:36:00.652Z,97794.79
2018-06-10T10:38:29.095Z,97792.18
2018-06-10T10:40:57.512Z,97787.84
2018-06-10T10:43:26.109Z,97784.39
2018-06-10T10:45:54.607Z,97784.59
2018-06-10T10:48:23.042Z,97773.43
2018-06-10T10:50:51.430Z,97778.36
2018-06-10T10:53:19.895Z,97780.33
2018-06-10T10:55:48.291Z,97777.94
2018-06-10T10:58:16.707Z,97769.45
2018-06-10T11:00:45.143Z,97774.17
2018-06-10T11:03:13.772Z,97773.52
2018-06-10T11:05:42.215Z,97771.78
2018-06-10T11:08:10.729Z,97772.47
2018-06-10T11:10:39.175Z,97761.28
2018-06-10T11:13:07.588Z,97760.08
2018-06-10T11:15:36.010Z,97761.45
2018-06-10T11:18:04.423Z,97750.44
2018-06-10T11:20:32.817Z,97764.45
2018-06-10T11:23:01.256Z,97750.15
2018-06-10T11:25:29.699Z,97747.00
2018-06-10T11:27:58.109Z,97746.22
2018-06-10T11:30:26.547Z,97741.62
2018-06-10T11:32:54.946Z,97747.00
2018-06-10T11:35:23.348Z,97746.28
2018-06-10T11:37:51.747Z,97742.24
2018-06-10T11:40:20.155Z,97737.13
2018-06-10T11:42:48.560Z,97736.18
2018-06-10T11:45:17.003Z,97734.77
2018-06-10T11:47:45.416Z,97732.20
2018-06-10T11:50:14.691Z,97728.19
2018-06-10T11:52:43.178Z,97724.87
2018-06-10T11:55:11.609Z,97724.78
2018-06-10T11:57:40.067Z,97717.31
2018-06-10T12:00:08.703Z,97719.71
2018-06-10T12:02:37.340Z,97707.46
2018-06-10T12:05:05.767Z,97718.61
2018-06-10T12:07:34.183Z,97702.43
2018-06-10T12:10:02.627Z,97709.89
2018-06-10T12:12:31.184Z,97705.75
2018-06-10T12:14:59.660Z,97715.81
2018-06-10T12:17:28.288Z,97706.45
2018-06-10T12:19:56.723Z,97699.66
2018-06-10T12:22:25.127Z,97701.32
2018-06-10T12:24:53.568Z,97698.02
2018-06-10T12:27:23.067Z,97700.77
2018-06-10T12:29:51.471Z,97690.00
2018-06-10T12:32:19.907Z,97687.66
2018-06-10T12:34:48.451Z,97685.16
2018-06-10T12:37:17.210Z,97684.55
2018-06-10T12:39:45.651Z,97678.76
2018-06-10T12:42:14.083Z,97682.06
2018-06-10T12:44:42.557Z,97681.85
2018-06-10T12:47:11.004Z,97685.67
2018-06-10T12:56:23.719Z,97684.22
2018-06-10T12:58:52.128Z,97683.58
2018-06-10T13:01:20.541Z,97679.39
2018-06-10T13:03:49.548Z,97671.00
2018-06-10T13:06:18.158Z,97667.30
2018-06-10T13:08:46.571Z,97670.47
2018-06-10T13:11:14.968Z,97664.03
2018-06-10T13:13:43.443Z,97660.61
2018-06-10T13:16:11.847Z,97656.38
2018-06-10T13:18:41.302Z,97657.21
2018-06-10T13:21:09.852Z,97648.98
2018-06-10T13:23:38.349Z,97648.80
2018-06-10T13:26:06.795Z,97644.70
2018-06-10T13:28:35.240Z,97646.87
2018-06-10T13:31:03.745Z,97638.41
2018-06-10T13:33:32.179Z,97644.44
2018-06-10T13:36:00.591Z,97637.87
2018-06-10T13:38:29.023Z,97644.13
2018-06-10T13:40:57.424Z,97647.59
2018-06-10T13:43:25.896Z,97638.19
2018-06-10T13:45:54.320Z,97639.23
2018-06-10T13:48:22.885Z,97642.12
2018-06-10T13:50:51.624Z,97650.31
2018-06-10T13:53:20.036Z,97644.98
2018-06-10T13:55:48.495Z,97643.33
2018-06-10T13:58:17.227Z,97639.18
2018-06-10T14:00:45.673Z,97637.86
2018-06-10T14:03:14.100Z,97646.08
2018-06-10T14:05:42.519Z,97644.67
2018-06-10T14:08:11.055Z,97644.70
2018-06-10T14:10:39.480Z,97649.06
2018-06-10T14:13:07.984Z,97650.78
2018-06-10T14:15:36.387Z,97642.72
2018-06-10T14:18:04.942Z,97640.47
2018-06-10T14:20:33.407Z,97644.69
2018-06-10T14:23:01.812Z,97634.44
2018-06-10T14:25:30.298Z,97633.89
2018-06-10T14:27:59.031Z,97639.11
2018-06-10T14:30:27.542Z,97626.89
2018-06-10T14:32:55.972Z,97623.01
2018-06-10T14:35:24.395Z,97620.00
2018-06-10T14:37:52.871Z,97618.45
2018-06-10T14:40:21.271Z,97614.63
2018-06-10T14:42:49.686Z,97611.99
2018-06-10T14:45:18.132Z,97615.50
2018-06-10T14:47:46.734Z,97613.64
2018-06-10T14:50:15.187Z,97604.30
2018-06-10T14:52:43.587Z,97598.45
2018-06-10T14:55:12.034Z,97592.37
2018-06-10T14:57:40.464Z,97592.10
2018-06-10T15:00:08.992Z,97605.59
2018-06-10T15:02:37.591Z,97589.78
2018-06-10T15:05:06.433Z,97586.08
2018-06-10T15:07:34.867Z,97593.63
2018-06-10T15:10:03.435Z,97579.45
2018-06-10T15:12:32.304Z,97578.14
2018-06-10T15:15:00.724Z,97583.70
2018-06-10T15:17:29.189Z,97591.33
2018-06-10T15:19:57.619Z,97577.76
2018-06-10T15:22:26.065Z,97575.81
2018-06-10T15:24:54.542Z,97572.05
2018-06-10T15:27:22.949Z,97569.52
2018-06-10T15:29:51.360Z,97573.67
2018-06-10T15:32:19.762Z,97571.02
2018-06-10T15:34:48.198Z,97566.08
2018-06-10T15:37:16.787Z,97563.25
2018-06-10T15:39:45.504Z,97570.92
2018-06-10T15:42:13.943Z,97576.80
2018-06-10T15:44:42.402Z,97579.11
2018-06-10T15:47:10.814Z,97574.28
2018-06-10T15:49:39.231Z,97582.98
2018-06-10T15:52:07.864Z,97584.87
2018-06-10T15:54:36.266Z,97579.96
2018-06-10T15:57:04.773Z,97577.78
2018-06-10T15:59:33.374Z,97587.05
2018-06-10T16:02:02.153Z,97585.68
2018-06-10T16:04:31.152Z,97583.29
2018-06-10T16:06:59.596Z,97581.88
2018-06-10T16:09:28.051Z,97588.20
2018-06-10T16:11:56.463Z,97582.71
2018-06-10T16:14:24.924Z,97598.17
2018-06-10T16:16:53.699Z,97587.50
2018-06-10T16:19:22.527Z,97580.06
2018-06-10T16:21:51.041Z,97574.27
2018-06-10T16:24:19.458Z,97574.27
2018-06-10T16:26:47.888Z,97573.30
2018-06-10T16:29:16.411Z,97567.39
2018-06-10T16:31:44.833Z,97570.26
2018-06-10T16:34:13.309Z,97572.30
2018-06-10T16:36:41.726Z,97583.42
2018-06-10T16:39:10.156Z,97572.44
2018-06-10T16:41:38.633Z,97574.51
2018-06-10T16:44:07.115Z,97581.88
2018-06-10T16:46:35.570Z,97582.41
2018-06-10T16:49:04.015Z,97585.89
2018-06-10T16:51:32.423Z,97579.12
2018-06-10T16:54:00.920Z,97580.50
2018-06-10T16:56:29.651Z,97591.19
2018-06-10T16:58:58.313Z,97595.52
2018-06-10T17:01:27.181Z,97610.27
2018-06-10T17:03:55.707Z,97630.00
2018-06-10T17:06:24.123Z,97617.92
2018-06-10T17:08:52.834Z,97616.80
2018-06-10T17:11:21.295Z,97607.87
2018-06-10T17:13:49.816Z,97613.53
2018-06-10T17:16:18.271Z,97605.34
2018-06-10T17:18:46.913Z,97608.73
2018-06-10T17:21:15.642Z,97616.19
2018-06-10T17:23:44.323Z,97623.32
2018-06-10T17:26:12.768Z,97628.91
2018-06-10T17:28:41.165Z,97619.21
2018-06-10T17:31:09.738Z,97617.98
2018-06-10T17:35:07.521Z,97620.88
2018-06-10T17:37:36.316Z,97623.23
2018-06-10T17:40:05.675Z,97616.15
2018-06-10T17:42:34.128Z,97614.89
2018-06-10T17:45:02.739Z,97613.66
2018-06-10T17:47:31.218Z,97616.55
2018-06-10T17:49:59.611Z,97616.39
2018-06-10T17:52:28.012Z,97617.44
2018-06-10T17:54:56.477Z,97614.59
2018-06-10T17:57:24.906Z,97606.84
2018-06-10T17:59:53.663Z,97607.98
2018-06-10T18:02:22.136Z,97612.67
2018-06-10T18:04:50.947Z,97608.14
2018-06-10T18:07:19.458Z,97605.88
2018-06-10T18:09:47.853Z,97602.16
2018-06-10T18:12:16.260Z,97605.02
2018-06-10T18:14:44.667Z,97598.27
2018-06-10T18:17:13.119Z,97598.17
2018-06-10T18:19:41.546Z,97606.21
2018-06-10T18:22:09.983Z,97602.63
2018-06-10T18:24:38.392Z,97605.23
2018-06-10T18:27:06.876Z,97608.59
2018-06-10T18:29:35.328Z,97603.69
2018-06-10T18:32:04.054Z,97608.22
2018-06-10T18:34:32.491Z,97608.59
2018-06-10T18:37:00.927Z,97607.80
2018-06-10T18:39:29.361Z,97619.67
2018-06-10T18:41:57.793Z,97614.54
2018-06-10T18:44:26.502Z,97619.05
2018-06-10T18:46:55.204Z,97620.33
2018-06-10T18:49:23.663Z,97621.60
2018-06-10T18:51:52.099Z,97626.40
2018-06-10T18:54:20.617Z,97636.29
2018-06-10T18:56:49.039Z,97642.95
2018-06-10T18:59:17.504Z,97642.17
2018-06-10T19:01:45.985Z,97646.81
2018-06-10T19:04:14.426Z,97644.11
2018-06-10T19:06:42.880Z,97652.61
2018-06-10T19:09:11.366Z,97653.56
2018-06-10T19:11:39.839Z,97656.57
2018-06-10T19:14:08.403Z,97656.92
2018-06-10T19:16:36.927Z,97659.66
2018-06-10T19:19:05.396Z,97657.12
2018-06-10T19:21:33.828Z,97657.58
2018-06-10T19:24:02.253Z,97664.81
2018-06-10T19:26:30.660Z,97666.59
2018-06-10T19:28:59.108Z,97666.95
2018-06-10T19:31:27.590Z,97663.95
2018-06-10T19:33:55.993Z,97669.21
2018-06-10T19:36:24.476Z,97674.61
2018-06-10T19:38:52.983Z,97673.71
2018-06-10T19:41:21.400Z,97666.16
2018-06-10T19:43:50.152Z,97675.08
2018-06-10T19:46:18.595Z,97675.94
2018-06-10T19:48:47.174Z,97679.83
2018-06-10T19:51:15.643Z,97675.89
2018-06-10T19:53:44.103Z,97676.82
2018-06-10T19:56:12.559Z,97680.67
2018-06-10T19:58:41.011Z,97672.79
2018-06-10T20:01:09.736Z,97682.02
2018-06-10T20:03:38.435Z,97674.45
2018-06-10T20:06:07.244Z,97681.19
2018-06-10T20:08:35.667Z,97680.57
2018-06-10T20:11:04.148Z,97680.78
2018-06-10T20:13:32.776Z,97684.50
2018-06-10T20:16:01.214Z,97688.20
2018-06-10T20:18:29.627Z,97686.05
2018-06-10T20:20:58.063Z,97687.39
2018-06-10T20:23:26.455Z,97690.92
2018-06-10T20:25:55.053Z,97686.34
2018-06-10T20:28:23.488Z,97687.18
2018-06-10T20:30:51.939Z,97681.13
2018-06-10T20:33:20.863Z,97683.77
2018-06-10T20:35:49.320Z,97684.06
2018-06-10T20:38:17.802Z,97682.93
2018-06-10T20:40:46.582Z,97687.47
2018-06-10T20:43:15.018Z,97691.49
2018-06-10T20:45:43.465Z,97697.23
2018-06-10T20:48:11.908Z,97701.25
2018-06-10T20:50:40.325Z,97698.70
2018-06-10T20:53:08.712Z,97701.98
2018-06-10T20:55:37.195Z,97708.34
2018-06-10T20:58:05.654Z,97709.25
2018-06-10T21:00:34.263Z,97710.77
2018-06-10T21:03:02.771Z,97710.41
2018-06-10T21:05:31.204Z,97712.22
2018-06-10T21:07:59.681Z,97715.33
2018-06-10T21:10:28.073Z,97715.09
2018-06-10T21:12:56.620Z,97715.42
2018-06-10T21:15:25.165Z,97715.77
2018-06-10T21:17:53.611Z,97715.54
2018-06-10T21:20:22.039Z,97723.78
2018-06-10T21:22:50.449Z,97725.33
2018-06-10T21:25:18.911Z,97732.88
2018-06-10T21:27:47.326Z,97726.50
2018-06-10T21:30:16.223Z,97726.83
2018-06-10T21:32:44.653Z,97728.23
2018-06-10T21:35:13.074Z,97727.61
2018-06-10T21:37:41.583Z,97734.28
2018-06-10T21:40:10.015Z,97741.48
2018-06-10T21:42:38.458Z,97750.17
2018-06-10T21:45:06.880Z,97745.37
2018-06-10T21:47:35.468Z,97745.55
2018-06-10T21:50:03.910Z,97757.49
2018-06-10T21:52:32.331Z,97753.67
2018-06-10T21:55:00.767Z,97756.76
2018-06-10T21:57:29.143Z,97758.90
2018-06-10T21:59:57.569Z,97759.17
2018-06-10T22:02:26.205Z,97757.82
2018-06-10T22:04:54.618Z,97758.33
2018-06-10T22:07:23.098Z,97754.06
2018-06-10T22:09:51.552Z,97745.45
2018-06-10T22:12:19.952Z,97756.74
2018-06-10T22:14:48.376Z,97759.84
2018-06-10T22:17:16.794Z,97760.80
2018-06-10T22:19:45.707Z,97764.19
2018-06-10T22:22:14.140Z,97760.76
2018-06-10T22:24:42.564Z,97763.36
2018-06-10T22:27:11.323Z,97772.15
2018-06-10T22:29:39.742Z,97773.22
2018-06-10T22:32:08.230Z,97771.92
2018-06-10T22:34:36.639Z,97774.77
2018-06-10T22:37:05.467Z,97772.72
2018-06-10T22:39:34.119Z,97773.72
2018-06-10T22:42:02.556Z,97773.79
2018-06-10T22:44:31.459Z,97773.95
2018-06-10T22:46:59.873Z,97773.64
2018-06-10T22:49:28.324Z,97779.30
2018-06-10T22:51:56.767Z,97773.14
2018-06-10T22:54:41.509Z,97771.88
2018-06-10T22:57:10.177Z,97771.61
2018-06-10T22:59:38.948Z,97767.50
2018-06-10T23:02:08.559Z,97767.73
2018-06-10T23:04:37.040Z,97766.39
2018-06-10T23:07:05.901Z,97769.19
2018-06-10T23:09:34.354Z,97765.41
2018-06-10T23:12:02.820Z,97762.67
2018-06-10T23:14:31.431Z,97763.14
2018-06-10T23:16:59.863Z,97759.07
2018-06-10T23:19:28.335Z,97769.13
2018-06-10T23:21:56.760Z,97767.33
2018-06-10T23:24:25.203Z,97762.42
2018-06-10T23:26:53.920Z,97766.30
2018-06-10T23:29:22.837Z,97773.48
2018-06-10T23:31:51.243Z,97773.55
2018-06-10T23:34:19.667Z,97776.11
2018-06-10T23:36:48.140Z,97765.28
2018-06-10T23:39:16.559Z,97761.94
2018-06-10T23:41:45.048Z,97761.66
2018-06-10T23:44:13.477Z,97762.44
2018-06-10T23:46:41.884Z,97767.00
2018-06-10T23:49:10.453Z,97768.55
2018-06-10T23:51:38.887Z,97767.27
2018-06-10T23:54:07.331Z,97759.61
2018-06-10T23:56:35.809Z,97765.38
2018-06-10T23:59:04.229Z,97761.56
